createdAt,value
2022-09-07T00:01:40.034Z,58.26
2022-09-07T00:04:30.191Z,58.19
2022-09-07T00:07:19.945Z,58.09
2022-09-07T00:10:11.481Z,58.18
2022-09-07T00:13:01.193Z,58.16
2022-09-07T00:15:51.118Z,58.18
2022-09-07T00:18:45.602Z,58.28
2022-09-07T00:21:36.552Z,58.23
2022-09-07T00:24:26.504Z,58.35
2022-09-07T00:27:16.367Z,58.31
2022-09-07T00:30:07.261Z,58.22
2022-09-07T00:32:57.521Z,58.28
2022-09-07T00:35:48.192Z,58.26
2022-09-07T00:38:38.555Z,58.11
2022-09-07T00:41:29.067Z,58.23
2022-09-07T00:44:53.944Z,58.16
2022-09-07T00:47:53.241Z,58.16
2022-09-07T00:50:47.692Z,58.17
2022-09-07T00:53:41.735Z,58.20
2022-09-07T00:56:34.507Z,58.39
2022-09-07T00:59:28.152Z,58.42
2022-09-07T01:02:18.918Z,58.49
2022-09-07T01:05:16.951Z,58.56
2022-09-07T01:08:07.584Z,58.62
2022-09-07T01:10:59.235Z,58.67
2022-09-07T01:13:54.632Z,58.72
2022-09-07T01:17:00.127Z,58.69
2022-09-07T01:20:32.283Z,58.84
2022-09-07T01:23:53.831Z,58.90
2022-09-07T01:27:09.274Z,58.91
2022-09-07T01:30:06.356Z,58.88
2022-09-07T01:33:10.177Z,58.84
2022-09-07T01:36:12.952Z,58.89
2022-09-07T01:39:05.845Z,58.98
2022-09-07T01:41:59.654Z,59.01
2022-09-07T01:44:54.488Z,59.02
2022-09-07T01:47:48.950Z,59.13
2022-09-07T01:50:45.534Z,59.03
2022-09-07T01:53:39.632Z,59.00
2022-09-07T01:56:36.255Z,59.09
2022-09-07T01:59:30.464Z,59.07
2022-09-07T02:02:23.283Z,59.16
2022-09-07T02:05:18.599Z,59.24
2022-09-07T02:08:14.599Z,59.30
2022-09-07T02:11:08.717Z,59.40
2022-09-07T02:14:03.033Z,59.30
2022-09-07T02:16:58.234Z,59.43
2022-09-07T02:19:52.283Z,59.40
2022-09-07T02:22:45.594Z,59.33
2022-09-07T02:25:41.883Z,59.33
2022-09-07T02:28:34.444Z,59.37
2022-09-07T02:31:24.418Z,59.41
2022-09-07T02:34:14.557Z,59.53
2022-09-07T02:37:07.657Z,59.53
2022-09-07T02:39:58.274Z,59.47
2022-09-07T02:42:49.952Z,59.44
2022-09-07T02:45:56.463Z,59.34
2022-09-07T02:49:01.711Z,59.34
2022-09-07T02:52:03.987Z,59.38
2022-09-07T02:55:08.341Z,59.35
2022-09-07T02:58:15.351Z,59.38
2022-09-07T03:01:16.442Z,59.46
2022-09-07T03:04:14.758Z,59.46
2022-09-07T03:07:11.346Z,59.52
2022-09-07T03:10:03.905Z,59.42
2022-09-07T03:12:53.521Z,59.43
2022-09-07T03:15:43.524Z,59.45
2022-09-07T03:18:33.281Z,59.43
2022-09-07T03:21:22.859Z,59.27
2022-09-07T03:24:13.643Z,59.14
2022-09-07T03:27:03.370Z,59.04
2022-09-07T03:29:53.607Z,59.02
2022-09-07T03:32:43.263Z,59.02
2022-09-07T03:35:32.837Z,59.01
2022-09-07T03:38:22.351Z,59.06
2022-09-07T03:41:12.854Z,59.21
2022-09-07T03:44:07.749Z,59.26
2022-09-07T03:46:57.632Z,59.26
2022-09-07T03:49:49.068Z,59.23
2022-09-07T03:52:39.679Z,59.28
2022-09-07T03:55:29.666Z,59.41
2022-09-07T03:58:19.412Z,59.43
2022-09-07T04:01:11.236Z,59.47
2022-09-07T04:04:02.969Z,59.39
2022-09-07T04:06:52.752Z,59.47
2022-09-07T04:09:42.740Z,59.46
2022-09-07T04:12:32.322Z,59.48
2022-09-07T04:15:22.066Z,59.42
2022-09-07T04:18:11.811Z,59.59
2022-09-07T04:21:02.604Z,59.51
2022-09-07T04:23:52.784Z,59.47
2022-09-07T04:26:43.693Z,59.51
2022-09-07T04:29:34.082Z,59.59
2022-09-07T04:32:23.799Z,59.57
2022-09-07T04:35:14.274Z,59.63
2022-09-07T04:38:04.463Z,59.55
2022-09-07T04:41:01.958Z,59.59
2022-09-07T04:43:56.171Z,59.60
2022-09-07T04:46:46.052Z,59.68
2022-09-07T04:49:35.826Z,59.70
2022-09-07T04:52:26.248Z,59.62
2022-09-07T04:55:16.704Z,59.66
2022-09-07T04:58:06.847Z,59.72
2022-09-07T05:00:56.940Z,59.75
2022-09-07T05:03:47.806Z,59.56
2022-09-07T05:06:37.872Z,59.23
2022-09-07T05:09:27.507Z,59.14
2022-09-07T05:12:16.954Z,58.96
2022-09-07T05:15:07.922Z,58.88
2022-09-07T05:17:57.477Z,58.97
2022-09-07T05:20:47.786Z,58.90
2022-09-07T05:23:38.075Z,58.88
2022-09-07T05:26:30.224Z,58.86
2022-09-07T05:32:30.011Z,58.81
2022-09-07T05:35:20.479Z,58.71
2022-09-07T05:38:10.446Z,58.61
2022-09-07T05:41:00.951Z,58.63
2022-09-07T05:47:01.122Z,58.59
2022-09-07T05:49:51.986Z,58.60
2022-09-07T05:52:46.134Z,58.59
2022-09-07T05:55:35.960Z,58.61
2022-09-07T05:58:26.086Z,58.67
2022-09-07T06:01:16.080Z,58.77
2022-09-07T06:04:05.849Z,58.61
2022-09-07T06:07:21.490Z,58.60
2022-09-07T06:13:16.513Z,58.43
2022-09-07T06:16:08.406Z,58.34
2022-09-07T06:18:58.841Z,58.14
2022-09-07T06:21:48.693Z,58.06
2022-09-07T06:24:38.299Z,57.99
2022-09-07T06:27:28.398Z,58.01
2022-09-07T06:30:18.501Z,58.11
2022-09-07T06:33:08.331Z,58.24
2022-09-07T06:36:03.371Z,58.40
2022-09-07T06:38:55.169Z,58.40
2022-09-07T06:42:00.755Z,58.39
2022-09-07T06:44:52.694Z,58.20
2022-09-07T06:47:42.440Z,57.95
2022-09-07T06:50:33.696Z,57.98
2022-09-07T06:56:21.495Z,57.93
2022-09-07T06:59:11.171Z,58.10
2022-09-07T07:02:00.694Z,58.04
2022-09-07T07:04:51.155Z,58.07
2022-09-07T07:07:41.453Z,58.03
2022-09-07T07:10:31.665Z,58.11
2022-09-07T07:16:12.907Z,58.03
2022-09-07T07:19:03.329Z,57.94
2022-09-07T07:22:23.753Z,57.80
2022-09-07T07:25:02.459Z,57.74
2022-09-07T07:27:52.392Z,57.74
2022-09-07T07:30:42.949Z,57.82
2022-09-07T07:33:35.376Z,57.81
2022-09-07T07:36:27.116Z,57.81
2022-09-07T07:42:27.458Z,57.50
2022-09-07T07:48:27.620Z,56.94
2022-09-07T07:51:17.769Z,56.86
2022-09-07T07:54:07.862Z,56.91
2022-09-07T07:56:57.477Z,56.58
2022-09-07T07:59:47.437Z,56.61
2022-09-07T08:02:37.075Z,56.50
2022-09-07T08:05:27.340Z,56.34
2022-09-07T08:08:17.402Z,56.23
2022-09-07T08:11:09.751Z,56.22
2022-09-07T08:14:01.412Z,56.10
2022-09-07T08:16:51.177Z,56.02
2022-09-07T08:19:41.129Z,55.57
2022-09-07T08:22:34.298Z,55.08
2022-09-07T08:25:25.404Z,55.07
2022-09-07T08:28:15.181Z,55.02
2022-09-07T08:31:09.316Z,54.78
2022-09-07T08:33:58.633Z,54.88
2022-09-07T08:36:48.477Z,54.73
2022-09-07T08:39:38.710Z,54.42
2022-09-07T08:42:51.881Z,54.27
2022-09-07T08:45:45.232Z,54.38
2022-09-07T08:48:36.514Z,54.55
2022-09-07T08:51:34.710Z,54.06
2022-09-07T08:54:24.468Z,53.51
2022-09-07T08:57:24.177Z,53.11
2022-09-07T09:00:17.812Z,52.64
2022-09-07T09:03:31.058Z,52.50
2022-09-07T09:06:30.620Z,52.35
2022-09-07T09:09:30.058Z,52.41
2022-09-07T09:12:36.884Z,53.14
2022-09-07T09:15:37.115Z,53.79
2022-09-07T09:18:45.278Z,53.98
2022-09-07T09:21:36.919Z,53.60
2022-09-07T09:24:36.316Z,52.52
2022-09-07T09:27:25.988Z,52.85
2022-09-07T09:30:18.811Z,52.75
2022-09-07T09:33:20.686Z,52.80
2022-09-07T09:36:32.624Z,52.48
2022-09-07T09:39:31.586Z,51.89
2022-09-07T09:42:30.852Z,51.90
2022-09-07T09:45:26.843Z,52.00
2022-09-07T09:48:22.915Z,51.94
2022-09-07T09:54:33.078Z,51.86
2022-09-07T10:04:30.478Z,51.87
2022-09-07T10:07:23.419Z,52.37
2022-09-07T10:10:18.525Z,52.35
2022-09-07T10:13:20.816Z,52.10
2022-09-07T10:16:12.636Z,52.14
2022-09-07T10:19:03.224Z,51.99
2022-09-07T10:21:59.128Z,52.06
2022-09-07T10:24:49.506Z,51.75
2022-09-07T10:27:41.310Z,51.91
2022-09-07T10:30:41.876Z,51.43
2022-09-07T10:33:43.571Z,51.04
2022-09-07T10:36:44.072Z,50.85
2022-09-07T10:39:39.410Z,50.58
2022-09-07T10:42:33.953Z,50.37
2022-09-07T10:45:32.494Z,50.56
2022-09-07T10:48:33.611Z,50.16
2022-09-07T10:51:29.560Z,50.05
2022-09-07T10:54:31.619Z,50.01
2022-09-07T10:57:42.147Z,50.20
2022-09-07T11:00:44.640Z,50.30
2022-09-07T11:03:52.312Z,50.16
2022-09-07T11:06:47.220Z,50.32
2022-09-07T11:09:55.915Z,50.38
2022-09-07T11:12:46.901Z,50.67
2022-09-07T11:15:42.423Z,50.75
2022-09-07T11:18:36.925Z,50.90
2022-09-07T11:28:09.658Z,51.23
2022-09-07T11:31:03.777Z,51.43
2022-09-07T11:37:16.173Z,51.50
2022-09-07T11:40:13.864Z,51.33
2022-09-07T11:43:14.104Z,51.33
2022-09-07T11:46:07.767Z,51.67
2022-09-07T11:48:59.091Z,51.74
2022-09-07T11:51:54.134Z,51.36
2022-09-07T11:54:50.517Z,51.58
2022-09-07T11:57:58.557Z,51.61
2022-09-07T12:00:57.135Z,51.62
2022-09-07T12:04:25.072Z,51.74
2022-09-07T12:07:39.640Z,51.83
2022-09-07T12:10:55.063Z,51.99
2022-09-07T12:14:04.022Z,52.08
2022-09-07T12:17:16.563Z,52.20
2022-09-07T12:20:17.977Z,52.29
2022-09-07T12:23:21.428Z,52.47
2022-09-07T12:26:50.598Z,52.38
2022-09-07T12:29:45.091Z,52.35
2022-09-07T12:33:19.944Z,52.24
2022-09-07T12:36:50.625Z,52.41
2022-09-07T12:39:44.123Z,52.42
2022-09-07T12:42:34.333Z,52.38
2022-09-07T12:46:00.878Z,52.45
2022-09-07T12:49:01.596Z,52.51
2022-09-07T12:52:06.845Z,52.57
2022-09-07T12:55:27.918Z,52.49
2022-09-07T12:58:32.884Z,52.64
2022-09-07T13:01:36.791Z,52.65
2022-09-07T13:04:56.311Z,52.77
2022-09-07T13:08:30.376Z,52.78
2022-09-07T13:11:33.010Z,52.77
2022-09-07T13:14:26.868Z,52.91
2022-09-07T13:17:41.645Z,53.04
2022-09-07T13:20:37.577Z,53.19
2022-09-07T13:23:30.028Z,53.17
2022-09-07T13:26:57.810Z,53.23
2022-09-07T13:29:53.294Z,53.28
2022-09-07T13:35:56.745Z,52.97
2022-09-07T13:38:47.721Z,52.87
2022-09-07T13:41:44.093Z,52.92
2022-09-07T13:44:35.885Z,52.88
2022-09-07T13:47:36.708Z,52.98
2022-09-07T13:50:37.882Z,53.08
2022-09-07T13:53:39.071Z,53.28
2022-09-07T13:56:41.252Z,53.27
2022-09-07T13:59:35.423Z,53.40
2022-09-07T14:02:29.419Z,53.44
2022-09-07T14:05:22.833Z,53.57
2022-09-07T14:08:28.540Z,53.71
2022-09-07T14:11:24.662Z,53.76
2022-09-07T14:14:21.119Z,53.93
2022-09-07T14:17:15.398Z,53.81
2022-09-07T14:20:07.412Z,54.10
2022-09-07T14:22:57.305Z,54.19
2022-09-07T14:28:58.146Z,54.26
2022-09-07T14:31:48.037Z,54.61
2022-09-07T14:34:39.398Z,54.70
2022-09-07T14:37:29.737Z,54.92
2022-09-07T14:40:23.237Z,54.97
2022-09-07T14:43:29.993Z,55.05
2022-09-07T14:46:22.681Z,55.34
2022-09-07T14:49:22.093Z,55.37
2022-09-07T14:52:21.323Z,55.63
2022-09-07T14:55:30.980Z,55.52
2022-09-07T14:58:31.385Z,55.60
2022-09-07T15:01:40.328Z,55.44
2022-09-07T15:04:34.546Z,55.72
2022-09-07T15:07:41.083Z,55.74
2022-09-07T15:10:35.360Z,55.65
2022-09-07T15:13:32.385Z,55.45
2022-09-07T15:16:27.036Z,55.31
2022-09-07T15:19:32.088Z,55.36
2022-09-07T15:22:22.670Z,55.55
2022-09-07T15:25:15.075Z,55.48
2022-09-07T15:28:05.852Z,55.61
2022-09-07T15:34:10.033Z,55.40
2022-09-07T15:37:01.739Z,55.42
2022-09-07T15:39:53.014Z,55.52
2022-09-07T15:45:53.496Z,55.71
2022-09-07T15:48:52.359Z,55.95
2022-09-07T15:54:56.703Z,55.90
2022-09-07T15:57:48.755Z,55.90
2022-09-07T16:00:40.439Z,56.05
2022-09-07T16:03:33.825Z,55.98
2022-09-07T16:06:24.816Z,56.00
2022-09-07T16:09:15.228Z,55.98
2022-09-07T16:15:16.659Z,56.31
2022-09-07T16:18:06.865Z,56.53
2022-09-07T16:20:56.700Z,56.45
2022-09-07T16:23:48.832Z,56.62
2022-09-07T16:26:38.585Z,56.64
2022-09-07T16:29:28.628Z,56.82
2022-09-07T16:35:28.683Z,56.88
2022-09-07T16:41:31.409Z,57.40
2022-09-07T16:44:21.593Z,57.58
2022-09-07T16:47:12.864Z,57.69
2022-09-07T16:50:02.581Z,58.07
2022-09-07T16:52:53.480Z,58.05
2022-09-07T16:55:43.323Z,58.37
2022-09-07T16:58:36.007Z,58.52
2022-09-07T17:01:28.429Z,58.63
2022-09-07T17:04:19.100Z,58.73
2022-09-07T17:07:08.798Z,58.78
2022-09-07T17:09:58.762Z,58.98
2022-09-07T17:12:50.151Z,59.18
2022-09-07T17:15:39.994Z,59.33
2022-09-07T17:21:41.887Z,59.89
2022-09-07T17:24:32.552Z,59.91
2022-09-07T17:27:22.418Z,60.16
2022-09-07T17:30:14.022Z,60.35
2022-09-07T17:33:04.136Z,60.48
2022-09-07T17:35:55.245Z,60.55
2022-09-07T17:41:55.467Z,60.73
2022-09-07T17:44:44.999Z,60.73
2022-09-07T17:47:34.658Z,60.82
2022-09-07T17:50:24.452Z,60.91
2022-09-07T17:53:14.669Z,60.99
2022-09-07T17:56:05.094Z,60.98
2022-09-07T18:00:10.743Z,61.08
2022-09-07T18:02:05.204Z,61.21
2022-09-07T18:04:55.321Z,61.25
2022-09-07T18:07:45.148Z,61.27
2022-09-07T18:13:51.714Z,61.55
2022-09-07T18:16:41.698Z,61.66
2022-09-07T18:19:31.753Z,61.77
2022-09-07T18:22:21.655Z,61.95
2022-09-07T18:25:12.468Z,61.99
2022-09-07T18:31:13.605Z,62.24
2022-09-07T18:34:04.132Z,62.28
2022-09-07T18:36:55.234Z,61.94
2022-09-07T18:39:47.042Z,61.89
2022-09-07T18:42:36.474Z,61.65
2022-09-07T18:45:27.563Z,61.61
2022-09-07T18:48:18.286Z,61.54
2022-09-07T18:51:09.788Z,61.54
2022-09-07T18:54:00.200Z,61.62
2022-09-07T18:56:49.978Z,61.40
2022-09-07T18:59:41.017Z,60.99
2022-09-07T19:02:31.138Z,60.93
2022-09-07T19:08:35.468Z,60.48
2022-09-07T19:11:27.966Z,60.42
2022-09-07T19:14:17.813Z,60.18
2022-09-07T19:17:08.516Z,60.15
2022-09-07T19:19:58.155Z,60.03
2022-09-07T19:22:47.895Z,60.12
2022-09-07T19:25:42.758Z,59.94
2022-09-07T19:28:33.126Z,59.70
2022-09-07T19:31:23.658Z,59.73
2022-09-07T19:34:14.223Z,59.63
2022-09-07T19:37:05.122Z,59.57
2022-09-07T19:39:55.428Z,59.53
2022-09-07T19:42:45.383Z,59.47
2022-09-07T19:45:38.001Z,59.40
2022-09-07T19:48:28.061Z,59.49
2022-09-07T19:51:19.941Z,59.38
2022-09-07T19:54:09.879Z,59.48
2022-09-07T19:56:59.599Z,59.58
2022-09-07T19:59:49.556Z,59.59
2022-09-07T20:02:39.224Z,59.46
2022-09-07T20:05:31.109Z,59.29
2022-09-07T20:08:21.447Z,58.95
2022-09-07T20:11:13.420Z,59.09
2022-09-07T20:14:03.858Z,58.95
2022-09-07T20:16:53.521Z,58.90
2022-09-07T20:19:43.306Z,58.81
2022-09-07T20:22:32.884Z,58.82
2022-09-07T20:25:23.202Z,58.82
2022-09-07T20:28:14.742Z,58.79
2022-09-07T20:31:08.397Z,58.62
2022-09-07T20:33:58.232Z,58.72
2022-09-07T20:36:49.813Z,58.80
2022-09-07T20:39:40.408Z,58.79
2022-09-07T20:42:30.930Z,58.70
2022-09-07T20:45:20.776Z,58.71
2022-09-07T20:48:10.784Z,58.88
2022-09-07T20:51:06.623Z,58.91
2022-09-07T20:53:56.862Z,58.92
2022-09-07T20:56:46.204Z,58.91
2022-09-07T20:59:36.314Z,58.89
2022-09-07T21:02:26.121Z,58.80
2022-09-07T21:05:16.225Z,59.00
2022-09-07T21:08:05.919Z,59.02
2022-09-07T21:10:56.285Z,58.98
2022-09-07T21:13:46.783Z,58.93
2022-09-07T21:16:37.131Z,59.03
2022-09-07T21:19:26.681Z,59.01
2022-09-07T21:22:16.514Z,58.98
2022-09-07T21:25:07.031Z,59.02
2022-09-07T21:27:57.361Z,59.19
2022-09-07T21:30:56.031Z,58.95
2022-09-07T21:33:45.930Z,58.83
2022-09-07T21:36:35.717Z,58.88
2022-09-07T21:39:25.476Z,58.80
2022-09-07T21:42:15.743Z,58.80
2022-09-07T21:45:07.085Z,58.66
2022-09-07T21:47:56.529Z,58.71
2022-09-07T21:50:46.964Z,58.73
2022-09-07T21:53:37.488Z,58.72
2022-09-07T21:56:28.218Z,58.68
2022-09-07T21:59:18.190Z,58.72
2022-09-07T22:02:08.234Z,58.72
2022-09-07T22:04:57.819Z,58.55
2022-09-07T22:07:47.408Z,58.58
2022-09-07T22:10:38.184Z,58.55
2022-09-07T22:13:27.975Z,58.54
2022-09-07T22:16:18.220Z,58.58
2022-09-07T22:19:08.753Z,58.53
2022-09-07T22:21:58.557Z,58.46
2022-09-07T22:24:48.720Z,58.66
2022-09-07T22:27:38.955Z,58.68
2022-09-07T22:30:28.702Z,58.76
2022-09-07T22:33:19.018Z,58.82
2022-09-07T22:36:15.250Z,58.87
2022-09-07T22:39:09.963Z,58.92
2022-09-07T22:42:00.041Z,58.96
2022-09-07T22:44:50.084Z,59.11
2022-09-07T22:47:40.006Z,59.15
2022-09-07T22:50:29.921Z,59.22
2022-09-07T22:53:19.935Z,59.35
2022-09-07T22:56:12.554Z,59.33
2022-09-07T22:59:03.612Z,59.50
2022-09-07T23:01:53.694Z,59.43
2022-09-07T23:04:43.921Z,59.42
2022-09-07T23:07:34.133Z,59.41
2022-09-07T23:10:23.884Z,59.32
2022-09-07T23:13:16.812Z,59.37
2022-09-07T23:16:11.086Z,59.30
2022-09-07T23:19:02.218Z,59.42
2022-09-07T23:21:52.022Z,59.41
2022-09-07T23:24:41.971Z,59.47
2022-09-07T23:27:31.800Z,59.46
2022-09-07T23:30:22.022Z,59.61
2022-09-07T23:33:11.961Z,59.51
2022-09-07T23:36:04.225Z,59.52
2022-09-07T23:38:57.000Z,59.53
2022-09-07T23:41:46.805Z,59.47
2022-09-07T23:44:36.966Z,59.50
2022-09-07T23:47:27.353Z,59.51
2022-09-07T23:50:16.802Z,59.55
2022-09-07T23:53:07.180Z,59.55
2022-09-07T23:55:57.178Z,59.44
2022-09-07T23:58:47.244Z,59.46
